sensor_id;sensor_type;location;lat;lon;timestamp;temperature;humidity
43581;DHT22;29175;51.030;4.606;2023-12-20T00:01:51;6.30;99.90
43581;DHT22;29175;51.030;4.606;2023-12-20T00:04:18;6.20;99.90
43581;DHT22;29175;51.030;4.606;2023-12-20T00:06:43;6.00;99.90
43581;DHT22;29175;51.030;4.606;2023-12-20T00:09:10;6.00;99.90
43581;DHT22;29175;51.030;4.606;2023-12-20T00:11:37;6.20;99.90
43581;DHT22;29175;51.030;4.606;2023-12-20T00:14:03;6.00;99.90
43581;DHT22;29175;51.030;4.606;2023-12-20T00:16:29;6.10;99.90
43581;DHT22;29175;51.030;4.606;2023-12-20T00:18:58;6.10;99.90
43581;DHT22;29175;51.030;4.606;2023-12-20T00:21:24;6.10;99.90
43581;DHT22;29175;51.030;4.606;2023-12-20T00:23:49;5.90;99.90
43581;DHT22;29175;51.030;4.606;2023-12-20T00:26:16;5.80;99.90
43581;DHT22;29175;51.030;4.606;2023-12-20T00:28:42;5.90;99.90
43581;DHT22;29175;51.030;4.606;2023-12-20T00:31:08;5.90;99.90
43581;DHT22;29175;51.030;4.606;2023-12-20T00:33:34;6.00;99.90
43581;DHT22;29175;51.030;4.606;2023-12-20T00:35:59;6.10;99.90
43581;DHT22;29175;51.030;4.606;2023-12-20T00:38:25;6.10;99.90
43581;DHT22;29175;51.030;4.606;2023-12-20T00:40:51;6.00;99.90
43581;DHT22;29175;51.030;4.606;2023-12-20T00:43:17;6.00;99.90
43581;DHT22;29175;51.030;4.606;2023-12-20T00:45:43;6.10;99.90
43581;DHT22;29175;51.030;4.606;2023-12-20T00:48:11;6.00;99.90
43581;DHT22;29175;51.030;4.606;2023-12-20T00:50:38;6.00;99.90
43581;DHT22;29175;51.030;4.606;2023-12-20T00:53:04;5.90;99.90
43581;DHT22;29175;51.030;4.606;2023-12-20T00:55:31;6.00;99.90
43581;DHT22;29175;51.030;4.606;2023-12-20T00:57:58;6.10;99.90
43581;DHT22;29175;51.030;4.606;2023-12-20T01:00:25;6.00;99.90
43581;DHT22;29175;51.030;4.606;2023-12-20T01:02:50;5.90;99.90
43581;DHT22;29175;51.030;4.606;2023-12-20T01:05:18;5.80;99.90
43581;DHT22;29175;51.030;4.606;2023-12-20T01:07:44;5.70;99.90
43581;DHT22;29175;51.030;4.606;2023-12-20T01:10:10;5.70;99.90
43581;DHT22;29175;51.030;4.606;2023-12-20T01:12:38;5.60;99.90
43581;DHT22;29175;51.030;4.606;2023-12-20T01:15:04;5.60;99.90
43581;DHT22;29175;51.030;4.606;2023-12-20T01:17:30;5.50;99.90
43581;DHT22;29175;51.030;4.606;2023-12-20T01:19:57;5.50;99.90
43581;DHT22;29175;51.030;4.606;2023-12-20T01:22:24;5.50;99.90
43581;DHT22;29175;51.030;4.606;2023-12-20T01:24:50;5.50;99.90
43581;DHT22;29175;51.030;4.606;2023-12-20T01:27:17;5.60;99.90
43581;DHT22;29175;51.030;4.606;2023-12-20T01:29:45;5.60;99.90
43581;DHT22;29175;51.030;4.606;2023-12-20T01:32:10;5.60;99.90
43581;DHT22;29175;51.030;4.606;2023-12-20T01:34:36;5.60;99.90
43581;DHT22;29175;51.030;4.606;2023-12-20T01:37:02;5.60;99.90
43581;DHT22;29175;51.030;4.606;2023-12-20T01:39:31;5.50;99.90
43581;DHT22;29175;51.030;4.606;2023-12-20T01:41:57;5.50;99.90
43581;DHT22;29175;51.030;4.606;2023-12-20T01:44:22;5.40;99.90
43581;DHT22;29175;51.030;4.606;2023-12-20T01:46:54;5.30;99.90
43581;DHT22;29175;51.030;4.606;2023-12-20T01:49:21;5.20;99.90
43581;DHT22;29175;51.030;4.606;2023-12-20T01:51:48;5.30;99.90
43581;DHT22;29175;51.030;4.606;2023-12-20T01:54:14;5.30;99.90
43581;DHT22;29175;51.030;4.606;2023-12-20T01:56:41;5.30;99.90
43581;DHT22;29175;51.030;4.606;2023-12-20T01:59:07;5.40;99.90
43581;DHT22;29175;51.030;4.606;2023-12-20T02:01:35;5.30;99.90
43581;DHT22;29175;51.030;4.606;2023-12-20T02:04:02;5.40;99.90
43581;DHT22;29175;51.030;4.606;2023-12-20T02:06:30;5.30;99.90
43581;DHT22;29175;51.030;4.606;2023-12-20T02:08:58;5.40;99.90
43581;DHT22;29175;51.030;4.606;2023-12-20T02:11:26;5.40;99.90
43581;DHT22;29175;51.030;4.606;2023-12-20T02:13:53;5.40;99.90
43581;DHT22;29175;51.030;4.606;2023-12-20T02:16:19;5.40;99.90
43581;DHT22;29175;51.030;4.606;2023-12-20T02:18:44;5.30;99.90
43581;DHT22;29175;51.030;4.606;2023-12-20T02:21:11;5.20;99.90
43581;DHT22;29175;51.030;4.606;2023-12-20T02:23:37;5.30;99.90
43581;DHT22;29175;51.030;4.606;2023-12-20T02:26:04;5.30;99.90
43581;DHT22;29175;51.030;4.606;2023-12-20T02:28:31;5.30;99.90
43581;DHT22;29175;51.030;4.606;2023-12-20T02:30:57;5.50;99.90
43581;DHT22;29175;51.030;4.606;2023-12-20T02:33:23;5.50;99.90
43581;DHT22;29175;51.030;4.606;2023-12-20T02:35:49;5.60;99.90
43581;DHT22;29175;51.030;4.606;2023-12-20T02:38:19;5.70;99.90
43581;DHT22;29175;51.030;4.606;2023-12-20T02:40:45;5.80;99.90
43581;DHT22;29175;51.030;4.606;2023-12-20T02:43:12;5.90;99.90
43581;DHT22;29175;51.030;4.606;2023-12-20T02:45:38;5.80;99.90
43581;DHT22;29175;51.030;4.606;2023-12-20T02:48:05;5.80;99.90
43581;DHT22;29175;51.030;4.606;2023-12-20T02:50:31;5.80;99.90
43581;DHT22;29175;51.030;4.606;2023-12-20T02:52:58;5.70;99.90
43581;DHT22;29175;51.030;4.606;2023-12-20T02:55:24;5.70;99.90
43581;DHT22;29175;51.030;4.606;2023-12-20T02:57:50;5.70;99.90
43581;DHT22;29175;51.030;4.606;2023-12-20T03:00:15;5.70;99.90
43581;DHT22;29175;51.030;4.606;2023-12-20T03:02:41;5.70;99.90
43581;DHT22;29175;51.030;4.606;2023-12-20T03:05:08;5.60;99.90
43581;DHT22;29175;51.030;4.606;2023-12-20T03:07:36;5.70;99.90
43581;DHT22;29175;51.030;4.606;2023-12-20T03:10:03;5.90;99.90
43581;DHT22;29175;51.030;4.606;2023-12-20T03:12:29;5.90;99.90
43581;DHT22;29175;51.030;4.606;2023-12-20T03:14:55;5.90;99.90
43581;DHT22;29175;51.030;4.606;2023-12-20T03:17:20;6.00;99.90
43581;DHT22;29175;51.030;4.606;2023-12-20T03:19:46;6.00;99.90
43581;DHT22;29175;51.030;4.606;2023-12-20T03:22:12;6.10;99.90
43581;DHT22;29175;51.030;4.606;2023-12-20T03:24:38;6.10;99.90
43581;DHT22;29175;51.030;4.606;2023-12-20T03:27:03;6.20;99.90
43581;DHT22;29175;51.030;4.606;2023-12-20T03:29:29;6.30;99.90
43581;DHT22;29175;51.030;4.606;2023-12-20T03:31:55;6.30;99.90
43581;DHT22;29175;51.030;4.606;2023-12-20T03:34:21;6.30;99.90
43581;DHT22;29175;51.030;4.606;2023-12-20T03:36:46;6.30;99.90
43581;DHT22;29175;51.030;4.606;2023-12-20T03:39:13;6.30;99.90
43581;DHT22;29175;51.030;4.606;2023-12-20T03:41:40;6.20;99.90
43581;DHT22;29175;51.030;4.606;2023-12-20T03:44:06;6.20;99.90
43581;DHT22;29175;51.030;4.606;2023-12-20T03:46:33;6.20;99.90
43581;DHT22;29175;51.030;4.606;2023-12-20T03:48:59;6.20;99.90
43581;DHT22;29175;51.030;4.606;2023-12-20T03:51:24;6.30;99.90
43581;DHT22;29175;51.030;4.606;2023-12-20T03:53:50;6.40;99.90
43581;DHT22;29175;51.030;4.606;2023-12-20T03:56:16;6.50;99.90
43581;DHT22;29175;51.030;4.606;2023-12-20T03:58:41;6.60;99.90
43581;DHT22;29175;51.030;4.606;2023-12-20T04:01:10;6.50;99.90
43581;DHT22;29175;51.030;4.606;2023-12-20T04:03:38;6.50;99.90
43581;DHT22;29175;51.030;4.606;2023-12-20T04:06:04;6.50;99.90
43581;DHT22;29175;51.030;4.606;2023-12-20T04:08:30;6.40;99.90
43581;DHT22;29175;51.030;4.606;2023-12-20T04:10:56;6.30;99.90
43581;DHT22;29175;51.030;4.606;2023-12-20T04:13:23;6.30;99.90
43581;DHT22;29175;51.030;4.606;2023-12-20T04:15:49;6.20;99.90
43581;DHT22;29175;51.030;4.606;2023-12-20T04:18:16;6.10;99.90
43581;DHT22;29175;51.030;4.606;2023-12-20T04:20:42;6.10;99.90
43581;DHT22;29175;51.030;4.606;2023-12-20T04:23:08;6.00;99.90
43581;DHT22;29175;51.030;4.606;2023-12-20T04:25:33;6.00;99.90
43581;DHT22;29175;51.030;4.606;2023-12-20T04:27:59;6.00;99.90
43581;DHT22;29175;51.030;4.606;2023-12-20T04:30:25;5.90;99.90
43581;DHT22;29175;51.030;4.606;2023-12-20T04:32:51;5.90;99.90
43581;DHT22;29175;51.030;4.606;2023-12-20T04:35:16;5.90;99.90
43581;DHT22;29175;51.030;4.606;2023-12-20T04:37:42;5.90;99.90
43581;DHT22;29175;51.030;4.606;2023-12-20T04:40:08;6.00;99.90
43581;DHT22;29175;51.030;4.606;2023-12-20T04:42:34;6.00;99.90
43581;DHT22;29175;51.030;4.606;2023-12-20T04:45:01;6.00;99.90
43581;DHT22;29175;51.030;4.606;2023-12-20T04:47:27;6.00;99.90
43581;DHT22;29175;51.030;4.606;2023-12-20T04:49:53;5.90;99.90
43581;DHT22;29175;51.030;4.606;2023-12-20T04:52:19;5.80;99.90
43581;DHT22;29175;51.030;4.606;2023-12-20T04:54:45;5.90;99.90
43581;DHT22;29175;51.030;4.606;2023-12-20T04:57:10;5.90;99.90
43581;DHT22;29175;51.030;4.606;2023-12-20T04:59:36;6.00;99.90
43581;DHT22;29175;51.030;4.606;2023-12-20T05:02:02;6.10;99.90
43581;DHT22;29175;51.030;4.606;2023-12-20T05:04:28;6.00;99.90
43581;DHT22;29175;51.030;4.606;2023-12-20T05:06:53;6.00;99.90
43581;DHT22;29175;51.030;4.606;2023-12-20T05:09:19;5.90;99.90
43581;DHT22;29175;51.030;4.606;2023-12-20T05:11:45;5.90;99.90
43581;DHT22;29175;51.030;4.606;2023-12-20T05:14:10;5.80;99.90
43581;DHT22;29175;51.030;4.606;2023-12-20T05:16:36;5.80;99.90
43581;DHT22;29175;51.030;4.606;2023-12-20T05:19:01;5.70;99.90
43581;DHT22;29175;51.030;4.606;2023-12-20T05:21:32;5.70;99.90
43581;DHT22;29175;51.030;4.606;2023-12-20T05:23:58;5.70;99.90
43581;DHT22;29175;51.030;4.606;2023-12-20T05:26:24;5.60;99.90
43581;DHT22;29175;51.030;4.606;2023-12-20T05:28:50;5.60;99.90
43581;DHT22;29175;51.030;4.606;2023-12-20T05:31:15;5.70;99.90
43581;DHT22;29175;51.030;4.606;2023-12-20T05:33:41;5.70;99.90
43581;DHT22;29175;51.030;4.606;2023-12-20T05:36:07;5.70;99.90
43581;DHT22;29175;51.030;4.606;2023-12-20T05:38:37;5.70;99.90
43581;DHT22;29175;51.030;4.606;2023-12-20T05:41:03;5.60;99.90
43581;DHT22;29175;51.030;4.606;2023-12-20T05:43:29;5.60;99.90
43581;DHT22;29175;51.030;4.606;2023-12-20T05:45:54;5.60;99.90
43581;DHT22;29175;51.030;4.606;2023-12-20T05:48:21;5.70;99.90
43581;DHT22;29175;51.030;4.606;2023-12-20T05:50:48;5.60;99.90
43581;DHT22;29175;51.030;4.606;2023-12-20T05:53:14;5.60;99.90
43581;DHT22;29175;51.030;4.606;2023-12-20T05:55:40;5.60;99.90
43581;DHT22;29175;51.030;4.606;2023-12-20T05:58:06;5.60;99.90
43581;DHT22;29175;51.030;4.606;2023-12-20T06:00:31;5.60;99.90
43581;DHT22;29175;51.030;4.606;2023-12-20T06:02:58;5.60;99.90
43581;DHT22;29175;51.030;4.606;2023-12-20T06:05:24;5.60;99.90
43581;DHT22;29175;51.030;4.606;2023-12-20T06:07:49;5.50;99.90
43581;DHT22;29175;51.030;4.606;2023-12-20T06:10:16;5.60;99.90
43581;DHT22;29175;51.030;4.606;2023-12-20T06:12:42;5.70;99.90
43581;DHT22;29175;51.030;4.606;2023-12-20T06:15:09;5.80;99.90
43581;DHT22;29175;51.030;4.606;2023-12-20T06:17:34;5.70;99.90
43581;DHT22;29175;51.030;4.606;2023-12-20T06:20:01;5.80;99.90
43581;DHT22;29175;51.030;4.606;2023-12-20T06:22:26;5.90;99.90
43581;DHT22;29175;51.030;4.606;2023-12-20T06:24:53;6.00;99.90
43581;DHT22;29175;51.030;4.606;2023-12-20T06:27:19;6.00;99.90
43581;DHT22;29175;51.030;4.606;2023-12-20T06:29:44;6.00;99.90
43581;DHT22;29175;51.030;4.606;2023-12-20T06:32:10;6.00;99.90
43581;DHT22;29175;51.030;4.606;2023-12-20T06:34:36;6.00;99.90
43581;DHT22;29175;51.030;4.606;2023-12-20T06:37:02;6.00;99.90
43581;DHT22;29175;51.030;4.606;2023-12-20T06:39:27;6.00;99.90
43581;DHT22;29175;51.030;4.606;2023-12-20T06:41:54;5.90;99.90
43581;DHT22;29175;51.030;4.606;2023-12-20T06:44:20;5.90;99.90
43581;DHT22;29175;51.030;4.606;2023-12-20T06:46:47;5.80;99.90
43581;DHT22;29175;51.030;4.606;2023-12-20T06:49:13;5.80;99.90
43581;DHT22;29175;51.030;4.606;2023-12-20T06:51:38;5.90;99.90
43581;DHT22;29175;51.030;4.606;2023-12-20T06:54:04;5.60;99.90
43581;DHT22;29175;51.030;4.606;2023-12-20T06:56:30;5.50;99.90
43581;DHT22;29175;51.030;4.606;2023-12-20T06:58:56;5.60;99.90
43581;DHT22;29175;51.030;4.606;2023-12-20T07:01:21;5.70;99.90
43581;DHT22;29175;51.030;4.606;2023-12-20T07:03:47;5.50;99.90
43581;DHT22;29175;51.030;4.606;2023-12-20T07:06:13;5.60;99.90
43581;DHT22;29175;51.030;4.606;2023-12-20T07:08:41;5.60;99.90
43581;DHT22;29175;51.030;4.606;2023-12-20T07:11:08;5.60;99.90
43581;DHT22;29175;51.030;4.606;2023-12-20T07:13:35;5.70;99.90
43581;DHT22;29175;51.030;4.606;2023-12-20T07:16:00;5.70;99.90
43581;DHT22;29175;51.030;4.606;2023-12-20T07:18:26;5.60;99.90
43581;DHT22;29175;51.030;4.606;2023-12-20T07:20:52;5.60;99.90
43581;DHT22;29175;51.030;4.606;2023-12-20T07:23:18;5.60;99.90
43581;DHT22;29175;51.030;4.606;2023-12-20T07:25:45;5.50;99.90
43581;DHT22;29175;51.030;4.606;2023-12-20T07:28:11;5.50;99.90
43581;DHT22;29175;51.030;4.606;2023-12-20T07:30:37;5.40;99.90
43581;DHT22;29175;51.030;4.606;2023-12-20T07:33:02;5.40;99.90
43581;DHT22;29175;51.030;4.606;2023-12-20T07:35:28;5.30;99.90
43581;DHT22;29175;51.030;4.606;2023-12-20T07:37:54;5.30;99.90
43581;DHT22;29175;51.030;4.606;2023-12-20T07:40:20;5.30;99.90
43581;DHT22;29175;51.030;4.606;2023-12-20T07:42:45;5.20;99.90
43581;DHT22;29175;51.030;4.606;2023-12-20T07:45:11;5.30;99.90
43581;DHT22;29175;51.030;4.606;2023-12-20T07:47:37;5.20;99.90
43581;DHT22;29175;51.030;4.606;2023-12-20T07:50:03;5.30;99.90
43581;DHT22;29175;51.030;4.606;2023-12-20T07:52:32;5.30;99.90
43581;DHT22;29175;51.030;4.606;2023-12-20T07:54:57;5.30;99.90
43581;DHT22;29175;51.030;4.606;2023-12-20T07:57:28;5.30;99.90
43581;DHT22;29175;51.030;4.606;2023-12-20T07:59:53;5.30;99.90
43581;DHT22;29175;51.030;4.606;2023-12-20T08:02:19;5.30;99.90
43581;DHT22;29175;51.030;4.606;2023-12-20T08:04:46;5.30;99.90
43581;DHT22;29175;51.030;4.606;2023-12-20T08:07:11;5.40;99.90
43581;DHT22;29175;51.030;4.606;2023-12-20T08:09:37;5.40;99.90
43581;DHT22;29175;51.030;4.606;2023-12-20T08:12:04;5.40;99.90
43581;DHT22;29175;51.030;4.606;2023-12-20T08:14:30;5.40;99.90
43581;DHT22;29175;51.030;4.606;2023-12-20T08:16:57;5.40;99.90
43581;DHT22;29175;51.030;4.606;2023-12-20T08:19:22;5.60;99.90
43581;DHT22;29175;51.030;4.606;2023-12-20T08:21:48;5.70;99.90
43581;DHT22;29175;51.030;4.606;2023-12-20T08:24:14;5.80;99.90
43581;DHT22;29175;51.030;4.606;2023-12-20T08:26:39;5.90;99.90
43581;DHT22;29175;51.030;4.606;2023-12-20T08:29:05;6.00;99.90
43581;DHT22;29175;51.030;4.606;2023-12-20T08:31:30;6.00;99.90
43581;DHT22;29175;51.030;4.606;2023-12-20T08:33:56;6.10;99.90
43581;DHT22;29175;51.030;4.606;2023-12-20T08:36:22;6.20;99.90
43581;DHT22;29175;51.030;4.606;2023-12-20T08:38:48;6.20;99.90
43581;DHT22;29175;51.030;4.606;2023-12-20T08:41:15;6.20;99.90
43581;DHT22;29175;51.030;4.606;2023-12-20T08:43:41;6.00;99.90
43581;DHT22;29175;51.030;4.606;2023-12-20T08:46:07;6.00;99.90
43581;DHT22;29175;51.030;4.606;2023-12-20T08:48:35;5.90;99.90
43581;DHT22;29175;51.030;4.606;2023-12-20T08:51:00;6.00;99.90
43581;DHT22;29175;51.030;4.606;2023-12-20T08:53:26;5.90;99.90
43581;DHT22;29175;51.030;4.606;2023-12-20T08:55:52;5.90;99.90
43581;DHT22;29175;51.030;4.606;2023-12-20T08:58:18;5.90;99.90
43581;DHT22;29175;51.030;4.606;2023-12-20T09:00:44;6.00;99.90
43581;DHT22;29175;51.030;4.606;2023-12-20T09:03:10;6.10;99.90
43581;DHT22;29175;51.030;4.606;2023-12-20T09:05:36;6.00;99.90
43581;DHT22;29175;51.030;4.606;2023-12-20T09:08:01;6.10;99.90
43581;DHT22;29175;51.030;4.606;2023-12-20T09:10:27;6.10;99.90
43581;DHT22;29175;51.030;4.606;2023-12-20T09:12:53;6.20;99.90
43581;DHT22;29175;51.030;4.606;2023-12-20T09:15:26;6.10;99.90
43581;DHT22;29175;51.030;4.606;2023-12-20T09:17:52;6.20;99.90
43581;DHT22;29175;51.030;4.606;2023-12-20T09:20:18;6.20;99.90
43581;DHT22;29175;51.030;4.606;2023-12-20T09:22:44;6.20;99.90
43581;DHT22;29175;51.030;4.606;2023-12-20T09:25:10;6.20;99.90
43581;DHT22;29175;51.030;4.606;2023-12-20T09:27:37;6.20;99.90
43581;DHT22;29175;51.030;4.606;2023-12-20T09:30:02;6.20;99.90
43581;DHT22;29175;51.030;4.606;2023-12-20T09:32:30;6.30;99.90
43581;DHT22;29175;51.030;4.606;2023-12-20T09:34:56;6.40;99.90
43581;DHT22;29175;51.030;4.606;2023-12-20T09:37:22;6.50;99.90
43581;DHT22;29175;51.030;4.606;2023-12-20T09:39:49;6.50;99.90
43581;DHT22;29175;51.030;4.606;2023-12-20T09:42:19;6.50;99.90
43581;DHT22;29175;51.030;4.606;2023-12-20T09:44:47;6.60;99.90
43581;DHT22;29175;51.030;4.606;2023-12-20T09:47:14;6.80;99.90
43581;DHT22;29175;51.030;4.606;2023-12-20T09:49:41;6.80;99.90
43581;DHT22;29175;51.030;4.606;2023-12-20T09:52:09;6.80;99.90
43581;DHT22;29175;51.030;4.606;2023-12-20T09:54:36;6.70;99.90
43581;DHT22;29175;51.030;4.606;2023-12-20T09:57:02;6.70;99.90
43581;DHT22;29175;51.030;4.606;2023-12-20T09:59:28;6.80;99.90
43581;DHT22;29175;51.030;4.606;2023-12-20T10:01:55;6.80;99.90
43581;DHT22;29175;51.030;4.606;2023-12-20T10:04:22;6.90;99.90
43581;DHT22;29175;51.030;4.606;2023-12-20T10:06:48;6.90;99.90
43581;DHT22;29175;51.030;4.606;2023-12-20T10:09:13;7.20;99.90
43581;DHT22;29175;51.030;4.606;2023-12-20T10:11:40;7.30;99.90
43581;DHT22;29175;51.030;4.606;2023-12-20T10:14:08;7.40;99.90
43581;DHT22;29175;51.030;4.606;2023-12-20T10:16:33;7.40;99.90
43581;DHT22;29175;51.030;4.606;2023-12-20T10:19:00;7.40;99.90
43581;DHT22;29175;51.030;4.606;2023-12-20T10:21:29;7.50;99.90
43581;DHT22;29175;51.030;4.606;2023-12-20T10:23:56;7.50;99.90
43581;DHT22;29175;51.030;4.606;2023-12-20T10:26:23;7.60;99.90
43581;DHT22;29175;51.030;4.606;2023-12-20T10:28:59;7.70;99.90
43581;DHT22;29175;51.030;4.606;2023-12-20T10:31:34;7.90;99.90
43581;DHT22;29175;51.030;4.606;2023-12-20T10:34:02;7.90;99.90
43581;DHT22;29175;51.030;4.606;2023-12-20T10:36:32;8.00;99.90
43581;DHT22;29175;51.030;4.606;2023-12-20T10:38:58;8.20;99.90
43581;DHT22;29175;51.030;4.606;2023-12-20T10:41:29;8.10;99.90
43581;DHT22;29175;51.030;4.606;2023-12-20T10:43:59;8.10;99.90
43581;DHT22;29175;51.030;4.606;2023-12-20T10:46:26;8.20;99.90
43581;DHT22;29175;51.030;4.606;2023-12-20T10:48:54;8.20;99.90
43581;DHT22;29175;51.030;4.606;2023-12-20T10:51:21;8.20;99.90
43581;DHT22;29175;51.030;4.606;2023-12-20T10:53:48;8.30;99.90
43581;DHT22;29175;51.030;4.606;2023-12-20T10:56:16;8.30;99.90
43581;DHT22;29175;51.030;4.606;2023-12-20T10:58:43;8.30;99.90
43581;DHT22;29175;51.030;4.606;2023-12-20T11:01:16;8.20;99.90
43581;DHT22;29175;51.030;4.606;2023-12-20T11:03:51;8.20;99.90
43581;DHT22;29175;51.030;4.606;2023-12-20T11:06:32;8.20;99.90
43581;DHT22;29175;51.030;4.606;2023-12-20T11:09:06;8.20;99.90
43581;DHT22;29175;51.030;4.606;2023-12-20T11:14:29;8.20;99.90
43581;DHT22;29175;51.030;4.606;2023-12-20T11:17:09;8.10;99.90
43581;DHT22;29175;51.030;4.606;2023-12-20T11:20:03;8.20;99.90
43581;DHT22;29175;51.030;4.606;2023-12-20T11:22:33;8.20;99.90
43581;DHT22;29175;51.030;4.606;2023-12-20T11:25:10;8.20;99.90
43581;DHT22;29175;51.030;4.606;2023-12-20T11:27:40;8.20;99.90
43581;DHT22;29175;51.030;4.606;2023-12-20T11:30:07;8.20;99.90
43581;DHT22;29175;51.030;4.606;2023-12-20T11:32:35;8.10;99.90
43581;DHT22;29175;51.030;4.606;2023-12-20T11:35:17;8.00;99.90
43581;DHT22;29175;51.030;4.606;2023-12-20T11:37:44;8.20;99.90
43581;DHT22;29175;51.030;4.606;2023-12-20T11:40:14;8.20;99.90
43581;DHT22;29175;51.030;4.606;2023-12-20T11:42:42;8.10;99.90
43581;DHT22;29175;51.030;4.606;2023-12-20T11:45:14;8.10;99.90
43581;DHT22;29175;51.030;4.606;2023-12-20T11:47:47;8.00;99.90
43581;DHT22;29175;51.030;4.606;2023-12-20T11:50:15;8.10;99.90
43581;DHT22;29175;51.030;4.606;2023-12-20T11:52:41;8.20;99.90
43581;DHT22;29175;51.030;4.606;2023-12-20T11:55:07;8.20;99.90
43581;DHT22;29175;51.030;4.606;2023-12-20T11:57:33;8.20;99.90
43581;DHT22;29175;51.030;4.606;2023-12-20T11:59:59;8.20;99.90
43581;DHT22;29175;51.030;4.606;2023-12-20T12:02:24;8.30;99.90
43581;DHT22;29175;51.030;4.606;2023-12-20T12:04:50;8.30;99.90
43581;DHT22;29175;51.030;4.606;2023-12-20T12:07:16;8.20;99.90
43581;DHT22;29175;51.030;4.606;2023-12-20T12:09:43;8.20;99.90
43581;DHT22;29175;51.030;4.606;2023-12-20T12:12:08;8.30;99.90
43581;DHT22;29175;51.030;4.606;2023-12-20T12:14:34;8.30;99.90
43581;DHT22;29175;51.030;4.606;2023-12-20T12:17:03;8.40;99.90
43581;DHT22;29175;51.030;4.606;2023-12-20T12:19:29;8.40;99.90
43581;DHT22;29175;51.030;4.606;2023-12-20T12:22:11;8.60;99.90
43581;DHT22;29175;51.030;4.606;2023-12-20T12:24:44;8.50;99.90
43581;DHT22;29175;51.030;4.606;2023-12-20T12:27:10;8.50;99.90
43581;DHT22;29175;51.030;4.606;2023-12-20T12:29:37;8.50;99.90
43581;DHT22;29175;51.030;4.606;2023-12-20T12:32:11;8.40;99.90
43581;DHT22;29175;51.030;4.606;2023-12-20T12:34:37;8.50;99.90
43581;DHT22;29175;51.030;4.606;2023-12-20T12:37:06;8.60;99.90
43581;DHT22;29175;51.030;4.606;2023-12-20T12:39:32;8.70;99.90
43581;DHT22;29175;51.030;4.606;2023-12-20T12:41:58;8.70;99.90
43581;DHT22;29175;51.030;4.606;2023-12-20T12:44:23;8.80;99.90
43581;DHT22;29175;51.030;4.606;2023-12-20T12:46:50;9.00;99.90
43581;DHT22;29175;51.030;4.606;2023-12-20T12:49:17;9.10;99.90
43581;DHT22;29175;51.030;4.606;2023-12-20T12:51:43;9.10;99.90
43581;DHT22;29175;51.030;4.606;2023-12-20T12:54:09;9.20;99.90
43581;DHT22;29175;51.030;4.606;2023-12-20T12:56:36;9.20;99.90
43581;DHT22;29175;51.030;4.606;2023-12-20T12:59:02;9.10;99.90
43581;DHT22;29175;51.030;4.606;2023-12-20T13:01:28;9.00;99.90
43581;DHT22;29175;51.030;4.606;2023-12-20T13:03:53;9.00;99.90
43581;DHT22;29175;51.030;4.606;2023-12-20T13:06:20;9.00;99.90
43581;DHT22;29175;51.030;4.606;2023-12-20T13:08:46;8.90;99.90
43581;DHT22;29175;51.030;4.606;2023-12-20T13:11:11;8.90;99.90
43581;DHT22;29175;51.030;4.606;2023-12-20T13:13:37;9.00;99.90
43581;DHT22;29175;51.030;4.606;2023-12-20T13:16:03;8.90;99.90
43581;DHT22;29175;51.030;4.606;2023-12-20T13:18:29;8.90;99.90
43581;DHT22;29175;51.030;4.606;2023-12-20T13:20:55;9.00;99.90
43581;DHT22;29175;51.030;4.606;2023-12-20T13:23:20;9.10;99.90
43581;DHT22;29175;51.030;4.606;2023-12-20T13:25:46;9.10;99.90
43581;DHT22;29175;51.030;4.606;2023-12-20T13:28:12;9.10;99.90
43581;DHT22;29175;51.030;4.606;2023-12-20T13:30:38;9.10;99.90
43581;DHT22;29175;51.030;4.606;2023-12-20T13:33:04;9.10;99.90
43581;DHT22;29175;51.030;4.606;2023-12-20T13:35:31;9.00;99.90
43581;DHT22;29175;51.030;4.606;2023-12-20T13:37:58;9.00;99.90
43581;DHT22;29175;51.030;4.606;2023-12-20T13:40:23;9.00;99.90
43581;DHT22;29175;51.030;4.606;2023-12-20T13:42:49;9.00;99.90
43581;DHT22;29175;51.030;4.606;2023-12-20T13:45:15;8.90;99.90
43581;DHT22;29175;51.030;4.606;2023-12-20T13:47:41;8.90;99.90
43581;DHT22;29175;51.030;4.606;2023-12-20T13:50:07;9.00;99.90
43581;DHT22;29175;51.030;4.606;2023-12-20T13:52:33;9.00;99.90
43581;DHT22;29175;51.030;4.606;2023-12-20T13:54:58;9.10;99.90
43581;DHT22;29175;51.030;4.606;2023-12-20T13:57:24;9.10;99.90
43581;DHT22;29175;51.030;4.606;2023-12-20T13:59:50;9.10;99.90
43581;DHT22;29175;51.030;4.606;2023-12-20T14:02:16;9.10;99.90
43581;DHT22;29175;51.030;4.606;2023-12-20T14:04:42;9.10;99.90
43581;DHT22;29175;51.030;4.606;2023-12-20T14:07:08;9.10;99.90
43581;DHT22;29175;51.030;4.606;2023-12-20T14:09:35;9.10;99.90
43581;DHT22;29175;51.030;4.606;2023-12-20T14:12:01;9.10;99.90
43581;DHT22;29175;51.030;4.606;2023-12-20T14:14:26;9.00;99.90
43581;DHT22;29175;51.030;4.606;2023-12-20T14:16:52;9.00;99.90
43581;DHT22;29175;51.030;4.606;2023-12-20T14:19:19;9.10;99.90
43581;DHT22;29175;51.030;4.606;2023-12-20T14:21:45;9.10;99.90
43581;DHT22;29175;51.030;4.606;2023-12-20T14:24:14;9.10;99.90
43581;DHT22;29175;51.030;4.606;2023-12-20T14:26:41;9.20;99.90
43581;DHT22;29175;51.030;4.606;2023-12-20T14:29:07;9.20;99.90
43581;DHT22;29175;51.030;4.606;2023-12-20T14:31:33;9.20;99.90
43581;DHT22;29175;51.030;4.606;2023-12-20T14:33:59;9.20;99.90
43581;DHT22;29175;51.030;4.606;2023-12-20T14:36:26;9.30;99.90
43581;DHT22;29175;51.030;4.606;2023-12-20T14:38:52;9.30;99.90
43581;DHT22;29175;51.030;4.606;2023-12-20T14:41:18;9.40;99.90
43581;DHT22;29175;51.030;4.606;2023-12-20T14:43:44;9.40;99.90
43581;DHT22;29175;51.030;4.606;2023-12-20T14:46:11;9.40;99.90
43581;DHT22;29175;51.030;4.606;2023-12-20T14:48:37;9.30;99.90
43581;DHT22;29175;51.030;4.606;2023-12-20T14:51:03;9.30;99.90
43581;DHT22;29175;51.030;4.606;2023-12-20T14:53:28;9.30;99.90
43581;DHT22;29175;51.030;4.606;2023-12-20T14:55:54;9.20;99.90
43581;DHT22;29175;51.030;4.606;2023-12-20T14:58:20;9.30;99.90
43581;DHT22;29175;51.030;4.606;2023-12-20T15:00:45;9.30;99.90
43581;DHT22;29175;51.030;4.606;2023-12-20T15:03:11;9.30;99.90
43581;DHT22;29175;51.030;4.606;2023-12-20T15:05:37;9.30;99.90
43581;DHT22;29175;51.030;4.606;2023-12-20T15:08:03;9.10;99.90
43581;DHT22;29175;51.030;4.606;2023-12-20T15:10:29;9.10;99.90
43581;DHT22;29175;51.030;4.606;2023-12-20T15:12:55;9.10;99.90
43581;DHT22;29175;51.030;4.606;2023-12-20T15:15:22;9.10;99.90
43581;DHT22;29175;51.030;4.606;2023-12-20T15:17:49;9.10;99.90
43581;DHT22;29175;51.030;4.606;2023-12-20T15:20:15;9.00;99.90
43581;DHT22;29175;51.030;4.606;2023-12-20T15:22:40;9.10;99.90
43581;DHT22;29175;51.030;4.606;2023-12-20T15:25:08;9.10;99.90
43581;DHT22;29175;51.030;4.606;2023-12-20T15:27:35;9.10;99.90
43581;DHT22;29175;51.030;4.606;2023-12-20T15:30:04;9.10;99.90
43581;DHT22;29175;51.030;4.606;2023-12-20T15:32:30;9.10;99.90
43581;DHT22;29175;51.030;4.606;2023-12-20T15:34:56;9.00;99.90
43581;DHT22;29175;51.030;4.606;2023-12-20T15:37:23;9.10;99.90
43581;DHT22;29175;51.030;4.606;2023-12-20T15:39:51;9.00;99.90
43581;DHT22;29175;51.030;4.606;2023-12-20T15:42:17;9.10;99.90
43581;DHT22;29175;51.030;4.606;2023-12-20T15:44:43;9.10;99.90